Sl Murrumbidgee — VJN3448 — position and weather

sailwx.info

Track history (hours):
 
Tides and Currents Weather Stations Pressure Air Temp Water Temp Dewpoint Dewpoint Depression Visibility Wind Speed Wind Dir Waves Ship Positions

Sl Murrumbidgee

Last reported at 2018-Feb-12 16:10 UTC. Time now 2018-Feb-17 19:52 UTC.
Position S 27°24' E 153°09'.

Length 24 m; draft 5.4 m.

Type: Tug. MMSI: 503384400.

Date/timePositionNaut miles runAvg speedWind from/ knotsBaromVisibWave heightAir tempDewpointWater temp
2018-Feb-12 16:10S 27°24' E 153°09'0 0.0
2018-Feb-12 15:45S 27°24' E 153°09'2 0.4
2018-Feb-12 10:04S 27°22' E 153°10'0 0.9
2018-Feb-12 09:59S 27°22' E 153°10'0 0.0
2018-Feb-12 07:46S 27°22' E 153°10'2 0.6
2018-Feb-12 04:42S 27°24' E 153°09'0 0.6
2018-Feb-12 04:20S 27°24' E 153°09'3 2.2
2018-Feb-12 02:59S 27°21' E 153°11'1 0.1
2018-Feb-11 18:21S 27°22' E 153°10'0 1.3
2018-Feb-11 18:00S 27°23' E 153°10'2 0.5
2018-Feb-11 14:55S 27°24' E 153°09'2 5.1
2018-Feb-11 14:30S 27°26' E 153°07'0 0.8
2018-Feb-11 14:00S 27°25' E 153°08'0 0.0
2018-Feb-11 13:28S 27°26' E 153°08'4 2.3
2018-Feb-11 11:56S 27°23' E 153°10'0 0.2
2018-Feb-11 10:26S 27°22' E 153°10'0 0.0
2018-Feb-10 14:21S 27°22' E 153°10'1 1.7
2018-Feb-10 13:36S 27°23' E 153°09'3 0.8
2018-Feb-10 10:16S 27°21' E 153°11'  
2018-Feb-06 20:46S 27°22' E 153°11'2 3.4
2018-Feb-06 20:18S 27°20' E 153°11'2 0.1
2018-Feb-05 20:36S 27°22' E 153°10'  
Track history (hours):
 
Tides and Currents Weather Stations Pressure Air Temp Water Temp Dewpoint Dewpoint Depression Visibility Wind Speed Wind Dir Waves Ship Positions

Sl Murrumbidgee

Last reported at 2018-Feb-12 16:10 UTC. Time now 2018-Feb-17 19:52 UTC.
Position S 27°24' E 153°09'.

Length 24 m; draft 5.4 m.

Type: Tug. MMSI: 503384400.

Date/timePositionNaut miles runAvg speedWind from/ knotsBaromVisibWave heightAir tempDewpointWater temp
2018-Feb-12 16:10S 27°24' E 153°09'0 0.0
2018-Feb-12 15:45S 27°24' E 153°09'2 0.4
2018-Feb-12 10:04S 27°22' E 153°10'0 0.9
2018-Feb-12 09:59S 27°22' E 153°10'0 0.0
2018-Feb-12 07:46S 27°22' E 153°10'2 0.6
2018-Feb-12 04:42S 27°24' E 153°09'0 0.6
2018-Feb-12 04:20S 27°24' E 153°09'3 2.2
2018-Feb-12 02:59S 27°21' E 153°11'1 0.1
2018-Feb-11 18:21S 27°22' E 153°10'0 1.3
2018-Feb-11 18:00S 27°23' E 153°10'2 0.5
2018-Feb-11 14:55S 27°24' E 153°09'2 5.1
2018-Feb-11 14:30S 27°26' E 153°07'0 0.8
2018-Feb-11 14:00S 27°25' E 153°08'0 0.0
2018-Feb-11 13:28S 27°26' E 153°08'4 2.3
2018-Feb-11 11:56S 27°23' E 153°10'0 0.2
2018-Feb-11 10:26S 27°22' E 153°10'0 0.0
2018-Feb-10 14:21S 27°22' E 153°10'1 1.7
2018-Feb-10 13:36S 27°23' E 153°09'3 0.8
2018-Feb-10 10:16S 27°21' E 153°11'  
2018-Feb-06 20:46S 27°22' E 153°11'2 3.4
2018-Feb-06 20:18S 27°20' E 153°11'2 0.1
2018-Feb-05 20:36S 27°22' E 153°10'  

Dump ship's entire track history